createdAt,value
2023-04-08T00:02:41.516Z,4.98
2023-04-08T00:05:26.524Z,4.97
2023-04-08T00:08:11.639Z,4.84
2023-04-08T00:10:56.953Z,4.81
2023-04-08T00:13:41.795Z,4.79
2023-04-08T00:16:27.149Z,4.66
2023-04-08T00:19:12.021Z,4.64
2023-04-08T00:21:56.910Z,4.57
2023-04-08T00:24:41.786Z,4.46
2023-04-08T00:27:27.345Z,4.45
2023-04-08T00:30:12.793Z,4.39
2023-04-08T00:32:57.775Z,4.22
2023-04-08T00:35:43.281Z,4.39
2023-04-08T00:38:28.582Z,4.35
2023-04-08T00:41:13.442Z,4.26
2023-04-08T00:43:58.497Z,4.24
2023-04-08T00:46:44.043Z,4.26
2023-04-08T00:49:31.229Z,4.24
2023-04-08T00:52:16.434Z,4.21
2023-04-08T00:55:01.297Z,4.42
2023-04-08T00:57:47.440Z,4.49
2023-04-08T01:00:33.706Z,4.54
2023-04-08T01:03:23.909Z,4.53
2023-04-08T01:06:44.820Z,4.53
2023-04-08T01:09:33.093Z,4.64
2023-04-08T01:12:25.141Z,4.67
2023-04-08T01:15:12.164Z,4.72
2023-04-08T01:17:59.463Z,4.81
2023-04-08T01:20:46.614Z,4.80
2023-04-08T01:23:46.397Z,4.80
2023-04-08T01:26:31.714Z,4.74
2023-04-08T01:29:17.354Z,4.65
2023-04-08T01:32:03.384Z,4.70
2023-04-08T01:34:49.148Z,4.72
2023-04-08T01:37:35.713Z,4.79
2023-04-08T01:40:20.668Z,4.77
2023-04-08T01:43:08.666Z,4.75
2023-04-08T01:45:54.987Z,4.74
2023-04-08T01:48:40.746Z,4.73
2023-04-08T01:51:26.514Z,4.70
2023-04-08T01:54:11.605Z,4.77
2023-04-08T01:56:58.760Z,4.71
2023-04-08T01:59:48.191Z,4.72
2023-04-08T02:02:36.733Z,4.83
2023-04-08T02:05:22.306Z,4.85
2023-04-08T02:08:07.434Z,4.84
2023-04-08T02:10:52.388Z,4.84
2023-04-08T02:13:37.293Z,4.86
2023-04-08T02:16:44.274Z,4.90
2023-04-08T02:19:33.774Z,4.78
2023-04-08T02:22:43.861Z,5.01
2023-04-08T02:25:30.752Z,5.05
2023-04-08T02:28:18.642Z,4.91
2023-04-08T02:31:05.911Z,4.99
2023-04-08T02:33:52.135Z,4.99
2023-04-08T02:36:37.733Z,5.01
2023-04-08T02:39:31.098Z,4.92
2023-04-08T02:42:16.431Z,4.92
2023-04-08T02:45:01.924Z,4.98
2023-04-08T02:47:47.676Z,4.99
2023-04-08T02:50:32.629Z,5.10
2023-04-08T02:53:18.068Z,5.15
2023-04-08T02:56:03.026Z,5.15
2023-04-08T02:58:48.526Z,5.26
2023-04-08T03:01:33.824Z,5.19
2023-04-08T03:04:18.980Z,5.34
2023-04-08T03:07:03.930Z,5.25
2023-04-08T03:09:48.778Z,5.38
2023-04-08T03:12:34.137Z,5.31
2023-04-08T03:15:19.248Z,5.42
2023-04-08T03:18:04.474Z,5.35
2023-04-08T03:20:49.594Z,5.33
2023-04-08T03:23:34.353Z,5.32
2023-04-08T03:26:19.593Z,5.25
2023-04-08T03:29:04.953Z,5.42
2023-04-08T03:31:50.382Z,5.42
2023-04-08T03:34:35.919Z,5.33
2023-04-08T03:37:20.782Z,5.33
2023-04-08T03:40:06.967Z,5.23
2023-04-08T03:42:52.006Z,5.30
2023-04-08T03:45:37.607Z,5.34
2023-04-08T03:48:22.942Z,5.35
2023-04-08T03:51:08.168Z,5.43
2023-04-08T03:53:53.117Z,5.48
2023-04-08T03:56:38.469Z,5.44
2023-04-08T03:59:23.422Z,5.42
2023-04-08T04:02:08.747Z,5.49
2023-04-08T04:04:54.195Z,5.62
2023-04-08T04:07:39.549Z,5.53
2023-04-08T04:10:24.972Z,5.47
2023-04-08T04:13:10.027Z,5.47
2023-04-08T04:15:54.799Z,5.63
2023-04-08T04:18:40.213Z,5.68
2023-04-08T04:21:25.068Z,5.69
2023-04-08T04:24:10.075Z,5.66
2023-04-08T04:26:55.609Z,5.74
2023-04-08T04:29:40.333Z,5.83
2023-04-08T04:32:25.827Z,5.76
2023-04-08T04:35:12.348Z,5.73
2023-04-08T04:37:57.541Z,5.73
2023-04-08T04:40:42.771Z,5.75
2023-04-08T04:43:27.609Z,5.68
2023-04-08T04:46:12.575Z,5.75
2023-04-08T04:48:58.008Z,5.67
2023-04-08T04:51:42.833Z,5.77
2023-04-08T04:54:27.661Z,5.71
2023-04-08T04:57:13.048Z,5.69
2023-04-08T04:59:58.400Z,5.74
2023-04-08T05:02:44.179Z,5.67
2023-04-08T05:05:29.389Z,5.70
2023-04-08T05:08:14.249Z,5.78
2023-04-08T05:10:59.264Z,5.68
2023-04-08T05:13:45.242Z,5.73
2023-04-08T05:16:30.625Z,5.88
2023-04-08T05:19:16.043Z,6.04
2023-04-08T05:22:00.852Z,5.84
2023-04-08T05:24:45.671Z,6.00
2023-04-08T05:27:30.416Z,5.91
2023-04-08T05:30:15.261Z,6.00
2023-04-08T05:33:00.801Z,6.00
2023-04-08T05:35:46.318Z,6.00
2023-04-08T05:38:31.681Z,6.15
2023-04-08T05:41:16.942Z,6.17
2023-04-08T05:44:01.950Z,5.67
2023-04-08T05:46:47.363Z,5.81
2023-04-08T05:49:33.932Z,5.82
2023-04-08T05:52:19.032Z,5.70
2023-04-08T05:55:05.775Z,5.72
2023-04-08T05:57:50.669Z,5.92
2023-04-08T06:00:35.475Z,5.99
2023-04-08T06:03:20.962Z,6.08
2023-04-08T06:06:10.330Z,6.03
2023-04-08T06:08:55.662Z,5.78
2023-04-08T06:11:41.002Z,5.83
2023-04-08T06:14:25.874Z,5.82
2023-04-08T06:17:10.807Z,5.88
2023-04-08T06:19:55.575Z,6.04
2023-04-08T06:22:40.931Z,5.98
2023-04-08T06:25:25.806Z,5.87
2023-04-08T06:28:11.044Z,6.00
2023-04-08T06:30:56.014Z,5.85
2023-04-08T06:33:41.026Z,5.83
2023-04-08T06:36:25.938Z,5.75
2023-04-08T06:39:10.849Z,5.60
2023-04-08T06:41:56.042Z,5.76
2023-04-08T06:44:40.945Z,5.78
2023-04-08T06:47:25.993Z,5.94
2023-04-08T06:50:11.460Z,5.79
2023-04-08T06:52:56.339Z,5.95
2023-04-08T06:55:41.273Z,5.94
2023-04-08T06:58:26.717Z,5.79
2023-04-08T07:01:11.583Z,5.88
2023-04-08T07:03:57.244Z,5.94
2023-04-08T07:06:42.462Z,6.07
2023-04-08T07:09:27.469Z,5.93
2023-04-08T07:12:13.065Z,5.87
2023-04-08T07:14:58.236Z,5.80
2023-04-08T07:17:43.663Z,5.84
2023-04-08T07:20:30.849Z,5.95
2023-04-08T07:23:17.497Z,5.94
2023-04-08T07:26:04.004Z,5.96
2023-04-08T07:28:49.436Z,5.74
2023-04-08T07:31:34.845Z,5.74
2023-04-08T07:34:20.074Z,5.82
2023-04-08T07:37:05.318Z,5.88
2023-04-08T07:39:50.074Z,6.06
2023-04-08T07:42:35.399Z,6.07
2023-04-08T07:45:20.352Z,6.21
2023-04-08T07:48:05.944Z,6.11
2023-04-08T07:51:09.255Z,6.20
2023-04-08T07:53:55.625Z,6.18
2023-04-08T07:56:40.987Z,6.34
2023-04-08T07:59:26.561Z,6.28
2023-04-08T08:02:12.035Z,6.33
2023-04-08T08:04:57.474Z,6.57
2023-04-08T08:07:42.659Z,6.63
2023-04-08T08:10:27.593Z,6.60
2023-04-08T08:13:12.551Z,6.68
2023-04-08T08:15:57.659Z,6.80
2023-04-08T08:18:42.898Z,7.00
2023-04-08T08:21:27.774Z,7.25
2023-04-08T08:24:13.379Z,7.23
2023-04-08T08:26:58.230Z,7.41
2023-04-08T08:29:43.091Z,7.29
2023-04-08T08:32:27.941Z,7.16
2023-04-08T08:35:13.250Z,7.14
2023-04-08T08:37:58.772Z,7.31
2023-04-08T08:40:44.904Z,7.57
2023-04-08T08:43:30.605Z,7.70
2023-04-08T08:46:17.423Z,7.74
2023-04-08T08:49:02.874Z,7.94
2023-04-08T08:51:48.931Z,7.96
2023-04-08T08:54:34.358Z,8.01
2023-04-08T08:57:20.302Z,8.08
2023-04-08T09:00:06.691Z,8.26
2023-04-08T09:02:51.859Z,8.10
2023-04-08T09:05:53.583Z,8.01
2023-04-08T09:08:38.877Z,8.06
2023-04-08T09:11:24.432Z,8.01
2023-04-08T09:14:24.065Z,8.25
2023-04-08T09:17:09.090Z,8.51
2023-04-08T09:20:11.434Z,8.52
2023-04-08T09:23:01.809Z,9.02
2023-04-08T09:25:47.148Z,9.13
2023-04-08T09:28:32.485Z,9.49
2023-04-08T09:31:22.749Z,9.49
2023-04-08T09:34:15.626Z,9.78
2023-04-08T09:37:00.709Z,9.46
2023-04-08T09:39:45.724Z,9.16
2023-04-08T09:42:31.795Z,8.74
2023-04-08T09:45:18.481Z,8.69
2023-04-08T09:48:17.853Z,8.82
2023-04-08T09:51:02.806Z,9.09
2023-04-08T09:53:53.300Z,9.08
2023-04-08T09:56:47.556Z,9.00
2023-04-08T09:59:36.725Z,9.30
2023-04-08T10:02:29.661Z,9.47
2023-04-08T10:05:17.166Z,9.60
2023-04-08T10:08:02.635Z,9.87
2023-04-08T10:10:48.112Z,9.81
2023-04-08T10:13:33.757Z,9.82
2023-04-08T10:16:26.171Z,9.73
2023-04-08T10:19:37.315Z,9.93
2023-04-08T10:22:28.407Z,10.01
2023-04-08T10:25:16.858Z,10.07
2023-04-08T10:28:22.368Z,9.72
2023-04-08T10:31:22.164Z,9.77
2023-04-08T10:34:21.521Z,9.66
2023-04-08T10:37:06.752Z,9.58
2023-04-08T10:39:54.155Z,9.52
2023-04-08T10:42:39.511Z,9.48
2023-04-08T10:45:25.239Z,9.48
2023-04-08T10:48:13.522Z,9.48
2023-04-08T10:51:00.568Z,9.58
2023-04-08T10:53:45.751Z,9.73
2023-04-08T10:56:31.121Z,9.93
2023-04-08T10:59:27.518Z,10.07
2023-04-08T11:02:14.337Z,9.81
2023-04-08T11:04:59.731Z,10.11
2023-04-08T11:07:44.694Z,10.39
2023-04-08T11:10:29.867Z,10.42
2023-04-08T11:13:16.276Z,10.16
2023-04-08T11:16:01.775Z,10.07
2023-04-08T11:18:46.876Z,10.08
2023-04-08T11:21:35.519Z,10.49
2023-04-08T11:24:21.395Z,10.74
2023-04-08T11:27:06.485Z,11.09
2023-04-08T11:29:56.140Z,10.79
2023-04-08T11:32:41.405Z,10.63
2023-04-08T11:35:30.492Z,10.59
2023-04-08T11:38:15.581Z,10.36
2023-04-08T11:41:00.635Z,10.25
2023-04-08T11:43:53.817Z,10.38
2023-04-08T11:46:39.250Z,10.58
2023-04-08T11:49:24.456Z,10.65
2023-04-08T11:52:09.669Z,10.38
2023-04-08T11:54:55.234Z,10.27
2023-04-08T11:57:40.465Z,9.95
2023-04-08T12:00:25.964Z,9.91
2023-04-08T12:03:11.757Z,9.72
2023-04-08T12:05:56.759Z,9.76
2023-04-08T12:08:41.717Z,9.85
2023-04-08T12:11:26.735Z,10.08
2023-04-08T12:14:11.863Z,10.09
2023-04-08T12:16:56.803Z,9.73
2023-04-08T12:19:41.572Z,9.98
2023-04-08T12:22:26.680Z,9.81
2023-04-08T12:25:11.879Z,9.77
2023-04-08T12:27:56.934Z,9.71
2023-04-08T12:30:41.822Z,9.71
2023-04-08T12:33:27.254Z,9.59
2023-04-08T12:36:13.573Z,9.47
2023-04-08T12:38:58.952Z,9.48
2023-04-08T12:41:43.878Z,9.44
2023-04-08T12:44:28.653Z,9.50
2023-04-08T12:47:13.614Z,9.62
2023-04-08T12:49:58.956Z,9.86
2023-04-08T12:52:43.901Z,9.79
2023-04-08T12:55:28.869Z,9.90
2023-04-08T12:58:13.807Z,9.93
2023-04-08T13:00:59.201Z,10.21
2023-04-08T13:03:46.856Z,10.52
2023-04-08T13:06:32.159Z,10.70
2023-04-08T13:09:17.384Z,10.54
2023-04-08T13:12:02.260Z,10.73
2023-04-08T13:14:47.484Z,10.60
2023-04-08T13:17:32.596Z,10.80
2023-04-08T13:20:17.690Z,10.54
2023-04-08T13:23:02.878Z,10.24
2023-04-08T13:25:48.426Z,10.04
2023-04-08T13:28:38.709Z,9.85
2023-04-08T13:31:28.681Z,9.71
2023-04-08T13:34:13.915Z,9.47
2023-04-08T13:36:58.746Z,9.72
2023-04-08T13:39:44.071Z,9.73
2023-04-08T13:42:29.349Z,9.72
2023-04-08T13:45:14.700Z,9.77
2023-04-08T13:47:59.975Z,9.96
2023-04-08T13:50:45.319Z,9.96
2023-04-08T13:53:30.729Z,10.00
2023-04-08T13:56:15.891Z,10.07
2023-04-08T13:59:01.443Z,9.88
2023-04-08T14:01:46.769Z,9.93
2023-04-08T14:04:32.300Z,9.77
2023-04-08T14:07:17.337Z,9.82
2023-04-08T14:10:02.491Z,9.88
2023-04-08T14:12:47.491Z,9.79
2023-04-08T14:15:32.655Z,9.71
2023-04-08T14:18:17.622Z,9.92
2023-04-08T14:21:03.069Z,10.05
2023-04-08T14:23:48.195Z,10.07
2023-04-08T14:26:33.194Z,10.22
2023-04-08T14:29:18.485Z,10.23
2023-04-08T14:32:03.283Z,10.21
2023-04-08T14:34:48.760Z,10.25
2023-04-08T14:37:33.613Z,10.42
2023-04-08T14:40:18.597Z,10.35
2023-04-08T14:43:03.546Z,10.01
2023-04-08T14:45:50.375Z,10.13
2023-04-08T14:48:35.247Z,10.30
2023-04-08T14:51:20.076Z,10.05
2023-04-08T14:54:05.505Z,9.91
2023-04-08T14:56:51.021Z,9.91
2023-04-08T14:59:35.964Z,9.97
2023-04-08T15:02:21.531Z,10.28
2023-04-08T15:05:07.197Z,10.44
2023-04-08T15:07:53.334Z,10.04
2023-04-08T15:10:38.705Z,10.12
2023-04-08T15:13:23.452Z,10.04
2023-04-08T15:16:08.481Z,10.14
2023-04-08T15:18:53.716Z,10.04
2023-04-08T15:21:39.041Z,9.88
2023-04-08T15:24:24.500Z,9.85
2023-04-08T15:27:09.860Z,9.81
2023-04-08T15:29:54.884Z,9.81
2023-04-08T15:32:40.680Z,9.86
2023-04-08T15:35:26.140Z,9.96
2023-04-08T15:38:10.856Z,10.12
2023-04-08T15:40:56.142Z,10.26
2023-04-08T15:43:41.281Z,10.27
2023-04-08T15:46:26.563Z,10.01
2023-04-08T15:49:12.198Z,10.00
2023-04-08T15:51:57.482Z,9.98
2023-04-08T15:54:42.520Z,10.06
2023-04-08T15:57:28.034Z,10.07
2023-04-08T16:00:16.128Z,9.94
2023-04-08T16:03:02.113Z,10.08
2023-04-08T16:05:47.470Z,9.87
2023-04-08T16:08:33.921Z,10.04
2023-04-08T16:11:19.273Z,9.88
2023-04-08T16:14:04.541Z,9.78
2023-04-08T16:16:49.493Z,9.84
2023-04-08T16:19:34.524Z,9.92
2023-04-08T16:22:19.926Z,9.77
2023-04-08T16:25:05.738Z,9.87
2023-04-08T16:27:50.725Z,9.81
2023-04-08T16:30:36.042Z,9.80
2023-04-08T16:33:21.016Z,9.79
2023-04-08T16:36:06.153Z,9.69
2023-04-08T16:38:51.123Z,9.75
2023-04-08T16:41:36.558Z,9.70
2023-04-08T16:44:21.936Z,9.61
2023-04-08T16:47:07.122Z,9.78
2023-04-08T16:49:52.802Z,9.62
2023-04-08T16:52:38.128Z,9.64
2023-04-08T16:55:23.135Z,9.50
2023-04-08T16:58:08.579Z,9.52
2023-04-08T17:00:53.465Z,9.56
2023-04-08T17:03:39.045Z,9.43
2023-04-08T17:06:24.460Z,9.27
2023-04-08T17:09:10.512Z,9.33
2023-04-08T17:11:56.094Z,9.45
2023-04-08T17:14:41.301Z,9.53
2023-04-08T17:17:26.803Z,9.40
2023-04-08T17:20:12.222Z,9.35
2023-04-08T17:22:57.116Z,9.40
2023-04-08T17:25:42.326Z,9.35
2023-04-08T17:28:27.677Z,9.29
2023-04-08T17:31:13.026Z,9.24
2023-04-08T17:33:58.399Z,9.26
2023-04-08T17:36:44.070Z,9.20
2023-04-08T17:39:29.285Z,9.12
2023-04-08T17:42:14.813Z,9.20
2023-04-08T17:44:59.730Z,9.08
2023-04-08T17:47:45.199Z,9.27
2023-04-08T17:50:31.491Z,9.16
2023-04-08T17:53:16.589Z,9.10
2023-04-08T17:56:01.636Z,8.97
2023-04-08T17:58:46.927Z,9.01
2023-04-08T18:01:32.404Z,8.99
2023-04-08T18:04:17.779Z,8.84
2023-04-08T18:07:03.108Z,8.81
2023-04-08T18:09:48.587Z,8.88
2023-04-08T18:12:33.906Z,8.91
2023-04-08T18:15:19.493Z,9.04
2023-04-08T18:18:04.680Z,9.09
2023-04-08T18:20:50.338Z,9.08
2023-04-08T18:23:35.559Z,9.15
2023-04-08T18:26:20.389Z,8.92
2023-04-08T18:29:05.333Z,8.71
2023-04-08T18:31:50.662Z,8.81
2023-04-08T18:34:36.059Z,8.73
2023-04-08T18:37:21.486Z,8.71
2023-04-08T18:40:07.617Z,8.77
2023-04-08T18:42:52.868Z,8.85
2023-04-08T18:45:38.248Z,8.88
2023-04-08T18:48:23.547Z,8.83
2023-04-08T18:51:09.321Z,8.97
2023-04-08T18:53:54.626Z,8.93
2023-04-08T18:56:39.558Z,8.90
2023-04-08T18:59:24.566Z,8.95
2023-04-08T19:02:10.092Z,8.82
2023-04-08T19:04:55.217Z,8.95
2023-04-08T19:07:40.054Z,8.77
2023-04-08T19:10:25.428Z,8.80
2023-04-08T19:13:10.993Z,8.93
2023-04-08T19:15:56.951Z,8.84
2023-04-08T19:18:42.420Z,8.90
2023-04-08T19:21:27.357Z,8.81
2023-04-08T19:24:12.700Z,8.78
2023-04-08T19:26:58.177Z,8.75
2023-04-08T19:29:43.607Z,8.83
2023-04-08T19:32:28.951Z,8.77
2023-04-08T19:35:14.540Z,8.83
2023-04-08T19:38:00.001Z,8.80
2023-04-08T19:40:44.991Z,8.65
2023-04-08T19:43:30.507Z,8.78
2023-04-08T19:46:16.134Z,8.67
2023-04-08T19:49:01.667Z,8.71
2023-04-08T19:51:46.868Z,8.68
2023-04-08T19:54:32.194Z,8.56
2023-04-08T19:57:17.462Z,8.53
2023-04-08T20:00:02.567Z,8.49
2023-04-08T20:02:48.301Z,8.44
2023-04-08T20:05:33.941Z,8.44
2023-04-08T20:08:19.444Z,8.36
2023-04-08T20:11:04.836Z,8.31
2023-04-08T20:13:50.271Z,8.29
2023-04-08T20:16:35.850Z,8.21
2023-04-08T20:19:21.329Z,8.30
2023-04-08T20:22:06.765Z,8.26
2023-04-08T20:24:52.235Z,8.24
2023-04-08T20:27:37.261Z,8.24
2023-04-08T20:30:22.241Z,8.20
2023-04-08T20:33:07.679Z,7.99
2023-04-08T20:35:53.387Z,8.13
2023-04-08T20:38:38.651Z,8.04
2023-04-08T20:41:24.068Z,8.00
2023-04-08T20:44:09.373Z,7.96
2023-04-08T20:46:54.274Z,8.12
2023-04-08T20:49:39.706Z,7.85
2023-04-08T20:52:25.955Z,7.86
2023-04-08T20:55:11.155Z,7.90
2023-04-08T20:57:56.444Z,7.78
2023-04-08T21:00:41.837Z,7.80
2023-04-08T21:03:27.329Z,7.77
2023-04-08T21:06:20.056Z,7.77
2023-04-08T21:09:05.162Z,7.75
2023-04-08T21:11:50.101Z,7.69
2023-04-08T21:14:35.409Z,7.57
2023-04-08T21:17:20.994Z,7.70
2023-04-08T21:20:06.917Z,7.64
2023-04-08T21:22:52.045Z,7.56
2023-04-08T21:25:37.095Z,7.36
2023-04-08T21:28:22.679Z,7.43
2023-04-08T21:31:09.490Z,7.30
2023-04-08T21:33:54.786Z,7.34
2023-04-08T21:36:39.670Z,7.19
2023-04-08T21:39:24.752Z,7.24
2023-04-08T21:42:10.079Z,7.15
2023-04-08T21:44:55.053Z,7.10
2023-04-08T21:47:40.348Z,7.25
2023-04-08T21:50:25.796Z,7.08
2023-04-08T21:53:10.610Z,7.03
2023-04-08T21:55:55.693Z,6.84
2023-04-08T21:58:41.207Z,6.69
2023-04-08T22:01:26.390Z,6.62
2023-04-08T22:04:12.002Z,6.59
2023-04-08T22:06:57.077Z,6.55
2023-04-08T22:09:42.616Z,6.63
2023-04-08T22:12:28.034Z,6.51
2023-04-08T22:15:12.995Z,6.42
2023-04-08T22:17:59.115Z,6.51
2023-04-08T22:20:44.429Z,6.47
2023-04-08T22:23:29.833Z,6.44
2023-04-08T22:26:15.747Z,6.44
2023-04-08T22:29:01.336Z,6.32
2023-04-08T22:31:46.746Z,6.25
2023-04-08T22:34:32.120Z,6.07
2023-04-08T22:37:17.419Z,6.06
2023-04-08T22:40:02.898Z,6.07
2023-04-08T22:42:48.001Z,6.08
2023-04-08T22:45:32.984Z,5.93
2023-04-08T22:48:18.306Z,5.90
2023-04-08T22:51:03.650Z,5.85
2023-04-08T22:53:48.761Z,5.78
2023-04-08T22:56:34.263Z,5.62
2023-04-08T22:59:19.682Z,5.52
2023-04-08T23:02:04.918Z,5.57
2023-04-08T23:04:53.821Z,5.46
2023-04-08T23:07:39.183Z,5.46
2023-04-08T23:10:24.612Z,5.49
2023-04-08T23:13:10.009Z,5.43
2023-04-08T23:15:55.426Z,5.42
2023-04-08T23:18:40.747Z,5.43
2023-04-08T23:21:25.936Z,5.43
2023-04-08T23:24:11.215Z,5.35
2023-04-08T23:26:55.988Z,5.30
2023-04-08T23:29:41.040Z,5.29
2023-04-08T23:32:26.343Z,5.29
2023-04-08T23:35:11.747Z,5.28
2023-04-08T23:37:57.261Z,5.20
2023-04-08T23:40:42.222Z,5.16
2023-04-08T23:43:27.480Z,5.05
2023-04-08T23:46:12.438Z,5.04
2023-04-08T23:48:57.826Z,5.03
2023-04-08T23:51:43.364Z,4.88
2023-04-08T23:54:28.593Z,4.84
2023-04-08T23:57:13.933Z,5.09
2023-04-08T23:59:59.041Z,4.97
